MDF weather

Taylor County Airport
Medford, Wisconsin, United States

Public forecast

Using degrees Fahrenheit for public forecast. Weather courtesy of forecast.io.

METAR (pilot weather report)

Retrieved 2019/08/17 23:35 UTC (7 minutes ago):

KMDZ 172335Z AUTO 16007KT 10SM SCT046 23/16 A2984 RMK AO2 T02270161

TAF (pilot weather forecast)

Closest forecast is Wausau Downtown Airport, 30.6 nm (56.6 km) ESE. Retrieved 2019/08/17 18:22 UTC (5 hours ago):

TAF KAUW 171720Z 1718/1818 19004KT P6SM SCT040 FM180100 14004KT P6SM BKN250 FM180700 13005KT 5SM BR VCSH BKN080 TEMPO 1807/1811 3SM -TSRA BR SCT009 BKN015CB FM181100 14009KT 3SM SHRA BR BKN006 WS015/19035KT FM181600 21009G15KT 5SM SHRA BKN008